Time;durP1;ratioP1;P1;durP2;ratioP2;P2;SDS_P1;SDS_P2;PMS_P1;PMS_P2;Temp;Humidity;BMP_temperature;BMP_pressure;BME280_temperature;BME280_humidity;BME280_pressure;Samples;Min_cycle;Max_cycle;Signal;HPM_P1;HPM_P2
2022/08/17 00:00:15;;;;;;;22.65;17.75;;;;;;;;;;5114106;28;20499;-62
2022/08/17 00:02:56;;;;;;;23.35;18.67;;;;;;;;;;5114514;28;20023;-62
2022/08/17 00:05:22;;;;;;;26.83;18.88;;;;;;;;;;5114174;28;20034;-62
2022/08/17 00:07:48;;;;;;;23.40;17.85;;;;;;;;;;5113404;28;20027;-63
2022/08/17 00:10:14;;;;;;;21.38;17.50;;;;;;;;;;5113992;28;20072;-63
2022/08/17 00:12:41;;;;;;;25.17;20.13;;;;;;;;;;5113872;28;20419;-63
2022/08/17 00:15:08;;;;;;;22.58;18.67;;;;;;;;;;5114001;28;20384;-63
2022/08/17 00:17:34;;;;;;;22.55;18.08;;;;;;;;;;5112958;28;20020;-63
2022/08/17 00:20:00;;;;;;;21.27;18.08;;;;;;;;;;5113577;28;20039;-63
2022/08/17 00:22:26;;;;;;;23.63;19.80;;;;;;;;;;5113847;28;20024;-64
2022/08/17 00:24:52;;;;;;;23.75;18.45;;;;;;;;;;5095499;28;20043;-63
2022/08/17 00:27:18;;;;;;;21.75;19.25;;;;;;;;;;5112870;28;20545;-66
2022/08/17 00:29:45;;;;;;;37.20;20.77;;;;;;;;;;5095189;28;20028;-63
2022/08/17 00:32:11;;;;;;;25.45;20.65;;;;;;;;;;5113556;28;20020;-63
2022/08/17 00:34:37;;;;;;;23.25;19.15;;;;;;;;;;5113444;28;20015;-63
2022/08/17 00:37:03;;;;;;;24.63;18.65;;;;;;;;;;5113661;28;20023;-63
2022/08/17 00:39:29;;;;;;;23.27;18.92;;;;;;;;;;5111714;28;20106;-63
2022/08/17 00:41:55;;;;;;;23.63;18.60;;;;;;;;;;5113445;28;20098;-63
2022/08/17 00:44:21;;;;;;;25.33;21.45;;;;;;;;;;5095062;28;20472;-63
2022/08/17 00:46:47;;;;;;;23.05;20.02;;;;;;;;;;5113172;28;20019;-63
2022/08/17 00:49:18;;;;;;;26.90;19.50;;;;;;;;;;5112240;28;20085;-63
2022/08/17 00:51:47;;;;;;;23.27;18.55;;;;;;;;;;5094866;28;20055;-65
2022/08/17 00:54:17;;;;;;;24.27;19.70;;;;;;;;;;5095060;28;20027;-63
2022/08/17 00:56:45;;;;;;;24.75;19.13;;;;;;;;;;5094736;28;20031;-63
2022/08/17 00:59:11;;;;;;;;;;;;;;;;;;5112676;28;20019;-63
2022/08/17 01:01:38;;;;;;;22.40;20.00;;;;;;;;;;5112918;28;19910;-63
2022/08/17 01:04:04;;;;;;;28.00;20.20;;;;;;;;;;5113007;28;20016;-63
2022/08/17 01:06:31;;;;;;;26.15;21.25;;;;;;;;;;5112658;28;20031;-63
2022/08/17 01:08:58;;;;;;;23.75;20.67;;;;;;;;;;5093671;28;20020;-63
2022/08/17 01:11:25;;;;;;;24.73;20.60;;;;;;;;;;5112896;28;20019;-64
2022/08/17 01:13:51;;;;;;;23.67;20.33;;;;;;;;;;5112842;28;20030;-63
2022/08/17 01:16:25;;;;;;;25.75;21.98;;;;;;;;;;5112682;28;20023;-63
2022/08/17 01:18:53;;;;;;;23.75;20.13;;;;;;;;;;5112016;28;20024;-63
2022/08/17 01:21:22;;;;;;;25.50;21.77;;;;;;;;;;5112700;28;20028;-63
2022/08/17 01:23:48;;;;;;;26.33;20.85;;;;;;;;;;5112827;28;20094;-63
2022/08/17 01:26:14;;;;;;;24.02;20.77;;;;;;;;;;5112726;28;20019;-66
2022/08/17 01:28:40;;;;;;;25.48;22.45;;;;;;;;;;5111951;28;20034;-63
2022/08/17 01:31:07;;;;;;;25.65;21.92;;;;;;;;;;5112979;28;20023;-63
2022/08/17 01:33:33;;;;;;;22.92;20.35;;;;;;;;;;5113288;28;20033;-63
2022/08/17 01:35:59;;;;;;;25.17;21.83;;;;;;;;;;5112762;28;20514;-63
2022/08/17 01:38:30;;;;;;;25.02;21.90;;;;;;;;;;5112376;28;20015;-63
2022/08/17 01:40:58;;;;;;;25.33;22.40;;;;;;;;;;5112620;28;20100;-63
2022/08/17 01:43:27;;;;;;;26.38;22.65;;;;;;;;;;5112521;28;20540;-63
2022/08/17 01:45:55;;;;;;;26.00;21.42;;;;;;;;;;5112628;28;20076;-63
2022/08/17 01:48:22;;;;;;;27.17;22.23;;;;;;;;;;5111807;28;20028;-63
2022/08/17 01:50:50;;;;;;;25.92;22.33;;;;;;;;;;5096186;28;20060;-63
2022/08/17 01:53:19;;;;;;;26.30;22.67;;;;;;;;;;5117351;28;20032;-63
2022/08/17 01:55:48;;;;;;;28.48;22.77;;;;;;;;;;5117123;28;20043;-63
2022/08/17 01:58:14;;;;;;;26.45;22.30;;;;;;;;;;5116378;28;20152;-63
2022/08/17 02:00:41;;;;;;;29.13;21.52;;;;;;;;;;5116971;28;20028;-63
2022/08/17 02:03:07;;;;;;;28.17;21.23;;;;;;;;;;5116868;28;20027;-63
2022/08/17 02:05:34;;;;;;;24.00;20.55;;;;;;;;;;5117109;28;20023;-63
2022/08/17 02:08:00;;;;;;;27.15;21.30;;;;;;;;;;5115854;28;20283;-63
2022/08/17 02:10:27;;;;;;;25.75;22.15;;;;;;;;;;5116134;28;20024;-63
2022/08/17 02:12:54;;;;;;;23.90;21.30;;;;;;;;;;5097752;28;20110;-63
2022/08/17 02:15:21;;;;;;;24.85;21.13;;;;;;;;;;5116413;28;20395;-63
2022/08/17 02:17:47;;;;;;;25.67;20.73;;;;;;;;;;5115252;28;20072;-63
2022/08/17 02:20:13;;;;;;;22.50;19.52;;;;;;;;;;5115950;28;20020;-63
2022/08/17 02:22:40;;;;;;;23.55;20.92;;;;;;;;;;5115957;28;20479;-63
2022/08/17 02:25:08;;;;;;;25.30;21.17;;;;;;;;;;5097809;28;20027;-63
2022/08/17 02:27:34;;;;;;;26.67;21.90;;;;;;;;;;5115269;28;20105;-63
2022/08/17 02:30:01;;;;;;;24.55;21.52;;;;;;;;;;5115813;28;20031;-64
2022/08/17 02:32:27;;;;;;;29.38;20.73;;;;;;;;;;5116450;28;20019;-64
2022/08/17 02:34:53;;;;;;;25.30;20.27;;;;;;;;;;5115867;28;20038;-63
2022/08/17 02:37:19;;;;;;;26.98;21.83;;;;;;;;;;5115147;28;20027;-63
2022/08/17 02:39:45;;;;;;;25.05;21.92;;;;;;;;;;5115922;28;20023;-64
2022/08/17 02:42:12;;;;;;;26.73;21.83;;;;;;;;;;5115670;28;20030;-63
2022/08/17 02:44:39;;;;;;;27.33;22.23;;;;;;;;;;5115736;28;20023;-64
2022/08/17 02:47:05;;;;;;;25.65;21.45;;;;;;;;;;5115557;28;20019;-63
2022/08/17 02:49:31;;;;;;;25.58;22.67;;;;;;;;;;5114554;28;20027;-63
2022/08/17 02:51:57;;;;;;;26.58;21.98;;;;;;;;;;5115177;28;20077;-63
2022/08/17 02:54:24;;;;;;;26.50;22.45;;;;;;;;;;5115393;28;20028;-63
2022/08/17 02:56:50;;;;;;;28.27;23.33;;;;;;;;;;5115369;28;20448;-63
2022/08/17 02:59:16;;;;;;;28.25;23.65;;;;;;;;;;5114535;28;20027;-63
2022/08/17 03:01:42;;;;;;;28.55;22.38;;;;;;;;;;5114759;28;20039;-64
2022/08/17 03:04:08;;;;;;;26.25;22.65;;;;;;;;;;5114869;28;20072;-64
2022/08/17 03:06:34;;;;;;;25.98;22.40;;;;;;;;;;5115037;28;20026;-63
2022/08/17 03:09:00;;;;;;;29.17;23.83;;;;;;;;;;5114379;28;20035;-63
2022/08/17 03:11:26;;;;;;;26.73;23.10;;;;;;;;;;5096942;28;20027;-63
2022/08/17 03:13:52;;;;;;;28.02;23.67;;;;;;;;;;5115304;28;20081;-63
2022/08/17 03:16:18;;;;;;;27.02;24.08;;;;;;;;;;5096764;28;20437;-63
2022/08/17 03:18:44;;;;;;;26.83;23.92;;;;;;;;;;5095680;28;20019;-63
2022/08/17 03:21:10;;;;;;;27.45;24.50;;;;;;;;;;5114676;28;20023;-63
2022/08/17 03:23:39;;;;;;;29.67;24.35;;;;;;;;;;5115013;28;20016;-63
2022/08/17 03:26:06;;;;;;;27.52;24.27;;;;;;;;;;5096522;28;20020;-63
2022/08/17 03:28:33;;;;;;;26.65;23.17;;;;;;;;;;5114126;28;20055;-63
2022/08/17 03:30:59;;;;;;;26.15;22.55;;;;;;;;;;5096294;28;20077;-63
2022/08/17 03:33:25;;;;;;;27.02;24.13;;;;;;;;;;5114474;28;20103;-63
2022/08/17 03:35:51;;;;;;;26.13;23.33;;;;;;;;;;5114226;28;20470;-65
2022/08/17 03:38:17;;;;;;;28.77;25.02;;;;;;;;;;5113726;28;20028;-63
2022/08/17 03:40:46;;;;;;;27.60;24.48;;;;;;;;;;5114258;28;20027;-63
2022/08/17 03:43:13;;;;;;;32.28;24.35;;;;;;;;;;5114712;28;20398;-64
2022/08/17 03:56:44;;;;;;;28.30;24.20;;;;;;;;;;5114252;28;20042;-63
2022/08/17 03:59:15;;;;;;;28.38;25.25;;;;;;;;;;5112957;28;20080;-63
2022/08/17 04:01:42;;;;;;;29.38;24.45;;;;;;;;;;5110919;28;20024;-64
2022/08/17 04:04:08;;;;;;;30.73;25.02;;;;;;;;;;5113450;28;20024;-64
2022/08/17 04:06:34;;;;;;;27.80;24.65;;;;;;;;;;5113711;28;20472;-64
2022/08/17 04:09:00;;;;;;;28.80;24.08;;;;;;;;;;5112775;28;20065;-64
2022/08/17 04:11:26;;;;;;;30.48;25.33;;;;;;;;;;5100620;28;20028;-59
2022/08/17 04:13:52;;;;;;;30.08;25.65;;;;;;;;;;5093416;28;20089;-59
2022/08/17 04:16:18;;;;;;;27.50;24.48;;;;;;;;;;5093335;28;20392;-61
2022/08/17 04:18:44;;;;;;;32.35;24.83;;;;;;;;;;5094919;28;20111;-59
2022/08/17 04:21:11;;;;;;;30.65;25.77;;;;;;;;;;5113894;28;20043;-59
2022/08/17 04:23:37;;;;;;;27.80;24.77;;;;;;;;;;5113245;28;20073;-58
2022/08/17 04:26:03;;;;;;;29.15;24.85;;;;;;;;;;5113535;28;20026;-60
2022/08/17 04:28:29;;;;;;;28.08;24.85;;;;;;;;;;5112586;28;20042;-59
2022/08/17 04:30:56;;;;;;;34.30;25.70;;;;;;;;;;5114133;28;20080;-56
2022/08/17 04:33:25;;;;;;;29.40;24.77;;;;;;;;;;5113028;28;20035;-62
2022/08/17 04:35:57;;;;;;;31.08;25.23;;;;;;;;;;5110300;28;20112;-59
2022/08/17 04:38:24;;;;;;;40.20;35.88;;;;;;;;;;5092129;28;20070;-56
2022/08/17 04:43:36;;;;;;;33.45;27.67;;;;;;;;;;5092940;28;20031;-58
2022/08/17 04:46:06;;;;;;;30.50;27.13;;;;;;;;;;5092761;28;20024;-59
2022/08/17 04:48:37;;;;;;;30.35;27.00;;;;;;;;;;5092506;28;20023;-64
2022/08/17 04:51:08;;;;;;;32.17;25.05;;;;;;;;;;5074967;28;20083;-64
2022/08/17 04:53:34;;;;;;;30.75;24.25;;;;;;;;;;5093464;28;20028;-63
2022/08/17 04:56:01;;;;;;;28.60;24.70;;;;;;;;;;5093039;28;20024;-63
2022/08/17 04:58:27;;;;;;;27.73;24.73;;;;;;;;;;5091526;28;20028;-63
2022/08/17 05:00:53;;;;;;;29.23;24.88;;;;;;;;;;5092788;28;20396;-64
2022/08/17 05:03:19;;;;;;;29.98;25.40;;;;;;;;;;5093097;28;20020;-63
2022/08/17 05:05:48;;;;;;;33.83;25.45;;;;;;;;;;5093051;28;20058;-64
2022/08/17 05:08:14;;;;;;;37.50;31.90;;;;;;;;;;5092472;28;20031;-63
2022/08/17 05:10:40;;;;;;;32.00;24.98;;;;;;;;;;5092796;28;20055;-64
2022/08/17 05:13:08;;;;;;;27.30;23.38;;;;;;;;;;5092492;28;20023;-63
2022/08/17 05:15:35;;;;;;;29.00;23.07;;;;;;;;;;5092836;28;20404;-65
2022/08/17 05:18:01;;;;;;;32.53;25.42;;;;;;;;;;5091892;28;20499;-64
2022/08/17 05:20:28;;;;;;;33.35;24.10;;;;;;;;;;5092072;28;20094;-64
2022/08/17 05:22:56;;;;;;;32.63;23.88;;;;;;;;;;5092416;28;20531;-64
2022/08/17 05:25:23;;;;;;;27.08;23.85;;;;;;;;;;5091555;28;20032;-64
2022/08/17 05:27:49;;;;;;;27.33;24.40;;;;;;;;;;5091303;28;20031;-64
2022/08/17 05:30:16;;;;;;;33.70;25.90;;;;;;;;;;5092141;28;20020;-64
2022/08/17 05:32:51;;;;;;;29.35;24.67;;;;;;;;;;5074121;28;20024;-65
2022/08/17 05:35:17;;;;;;;28.45;23.88;;;;;;;;;;5091963;28;20091;-64
2022/08/17 05:37:43;;;;;;;30.88;23.63;;;;;;;;;;5107706;28;20049;-64
2022/08/17 05:40:09;;;;;;;31.38;27.98;;;;;;;;;;5112586;28;20032;-64
2022/08/17 05:42:35;;;;;;;29.63;24.38;;;;;;;;;;5094025;28;20051;-63
2022/08/17 05:45:01;;;;;;;34.83;27.38;;;;;;;;;;5112123;28;20020;-64
2022/08/17 05:47:28;;;;;;;35.95;28.65;;;;;;;;;;5111295;28;20375;-64
2022/08/17 05:49:54;;;;;;;31.23;24.77;;;;;;;;;;5113098;28;20032;-65
2022/08/17 05:52:25;;;;;;;33.83;25.73;;;;;;;;;;5112566;28;20126;-64
2022/08/17 05:54:51;;;;;;;34.28;26.75;;;;;;;;;;5112425;28;20020;-64
2022/08/17 05:57:23;;;;;;;38.22;25.55;;;;;;;;;;5111325;28;20015;-64
2022/08/17 05:59:52;;;;;;;30.67;23.67;;;;;;;;;;5111966;28;20120;-64
2022/08/17 06:02:23;;;;;;;32.13;26.48;;;;;;;;;;5109069;28;20115;-64
2022/08/17 06:05:07;;;;;;;29.13;24.65;;;;;;;;;;5092145;28;20530;-63
2022/08/17 06:07:52;;;;;;;27.92;23.67;;;;;;;;;;5073481;28;20020;-64
2022/08/17 06:10:37;;;;;;;26.15;22.75;;;;;;;;;;5091755;28;20415;-64
2022/08/17 06:13:05;;;;;;;31.98;23.00;;;;;;;;;;5091965;28;20115;-64
2022/08/17 06:15:34;;;;;;;26.92;22.80;;;;;;;;;;5091949;28;20112;-64
2022/08/17 06:18:02;;;;;;;26.88;23.95;;;;;;;;;;5091947;28;20020;-64
2022/08/17 06:20:38;;;;;;;32.47;23.77;;;;;;;;;;5092109;28;20040;-64
2022/08/17 06:23:07;;;;;;;28.98;24.88;;;;;;;;;;5092519;28;20361;-63
2022/08/17 06:25:53;;;;;;;26.92;22.50;;;;;;;;;;5092029;28;20020;-64
2022/08/17 06:28:23;;;;;;;26.83;23.45;;;;;;;;;;5090873;28;20043;-63
2022/08/17 06:30:52;;;;;;;31.25;24.05;;;;;;;;;;5090950;28;20019;-63
2022/08/17 06:33:18;;;;;;;;;;;;;;;;;;5092109;28;20103;-63
2022/08/17 06:35:51;;;;;;;31.08;24.75;;;;;;;;;;5091902;28;20351;-63
2022/08/17 06:38:27;;;;;;;38.58;25.98;;;;;;;;;;5092611;28;20052;-63
2022/08/17 06:40:58;;;;;;;29.13;24.77;;;;;;;;;;5095528;28;20053;-64
2022/08/17 06:43:33;;;;;;;27.35;23.25;;;;;;;;;;5095175;28;20032;-64
2022/08/17 06:46:00;;;;;;;33.47;24.42;;;;;;;;;;5095852;28;20078;-65
2022/08/17 06:48:26;;;;;;;28.80;23.17;;;;;;;;;;5094558;28;20019;-65
2022/08/17 06:50:58;;;;;;;26.70;23.35;;;;;;;;;;5095605;28;20061;-64
2022/08/17 06:53:47;;;;;;;26.83;23.23;;;;;;;;;;5095419;28;20030;-64
2022/08/17 06:56:21;;;;;;;27.55;23.65;;;;;;;;;;5095594;28;20165;-64
2022/08/17 06:58:48;;;;;;;26.42;23.27;;;;;;;;;;5094519;28;20024;-64
2022/08/17 07:01:20;;;;;;;30.35;22.80;;;;;;;;;;5095047;28;20038;-64
2022/08/17 07:03:53;;;;;;;30.50;23.95;;;;;;;;;;5095145;28;20035;-63
2022/08/17 07:06:32;;;;;;;28.88;24.20;;;;;;;;;;5076320;28;20020;-64
2022/08/17 07:09:07;;;;;;;27.88;22.75;;;;;;;;;;5093954;28;20056;-58
2022/08/17 07:11:39;;;;;;;26.45;22.35;;;;;;;;;;5094792;28;20024;-58
2022/08/17 07:14:05;;;;;;;26.35;22.00;;;;;;;;;;5094662;28;20119;-58
2022/08/17 07:16:35;;;;;;;27.98;22.42;;;;;;;;;;5094710;28;20119;-56
2022/08/17 07:19:01;;;;;;;27.40;21.90;;;;;;;;;;5094049;28;20069;-56
2022/08/17 07:21:33;;;;;;;24.52;21.63;;;;;;;;;;5094838;28;20020;-58
2022/08/17 07:24:14;;;;;;;28.95;21.80;;;;;;;;;;5094798;28;20024;-60
2022/08/17 07:26:40;;;;;;;27.85;23.83;;;;;;;;;;5094660;28;20081;-59
2022/08/17 07:29:09;;;;;;;30.13;22.25;;;;;;;;;;5093346;28;20032;-57
2022/08/17 07:31:35;;;;;;;31.92;22.67;;;;;;;;;;5094482;28;20120;-59
2022/08/17 07:34:05;;;;;;;28.42;21.30;;;;;;;;;;5094335;28;20058;-59
2022/08/17 07:36:32;;;;;;;31.90;22.05;;;;;;;;;;5094499;28;20034;-59
2022/08/17 07:38:59;;;;;;;28.35;21.95;;;;;;;;;;5093597;28;20043;-59
2022/08/17 07:41:26;;;;;;;27.38;21.05;;;;;;;;;;5094430;28;20107;-60
2022/08/17 07:43:52;;;;;;;28.63;22.75;;;;;;;;;;5076023;28;20038;-56
2022/08/17 07:49:02;;;;;;;32.33;22.38;;;;;;;;;;5092824;28;20046;-60
2022/08/17 07:51:35;;;;;;;27.70;20.40;;;;;;;;;;5094141;28;20450;-61
2022/08/17 07:54:05;;;;;;;23.55;19.83;;;;;;;;;;5075630;28;20047;-60
2022/08/17 07:57:00;;;;;;;26.83;20.90;;;;;;;;;;5093976;28;20048;-62
2022/08/17 07:59:34;;;;;;;23.63;20.83;;;;;;;;;;5058119;28;20488;-61
2022/08/17 08:02:01;;;;;;;27.15;21.00;;;;;;;;;;5094384;28;20066;-64
2022/08/17 08:04:27;;;;;;;28.52;21.58;;;;;;;;;;5093833;28;20048;-64
2022/08/17 08:06:54;;;;;;;24.30;20.38;;;;;;;;;;5093867;28;20024;-64
2022/08/17 08:09:29;;;;;;;24.08;19.88;;;;;;;;;;5092639;28;20020;-65
2022/08/17 08:11:55;;;;;;;23.23;19.65;;;;;;;;;;5093633;28;20434;-63
2022/08/17 08:14:29;;;;;;;23.70;19.42;;;;;;;;;;5093281;28;20114;-62
2022/08/17 08:16:58;;;;;;;24.80;19.83;;;;;;;;;;5093246;28;20028;-63
2022/08/17 08:19:25;;;;;;;27.40;21.65;;;;;;;;;;5092854;28;20020;-63
2022/08/17 08:21:57;;;;;;;85.22;28.33;;;;;;;;;;5093719;28;20058;-63
2022/08/17 08:24:42;;;;;;;54.20;22.73;;;;;;;;;;5093532;28;20020;-63
2022/08/17 08:27:11;;;;;;;21.42;18.98;;;;;;;;;;5093156;28;20043;-62
2022/08/17 08:29:52;;;;;;;25.65;19.27;;;;;;;;;;5092855;28;20035;-64
2022/08/17 08:32:36;;;;;;;28.02;19.83;;;;;;;;;;5093611;28;20531;-63
2022/08/17 08:35:08;;;;;;;27.13;20.70;;;;;;;;;;5092104;28;20387;-64
2022/08/17 08:37:40;;;;;;;24.52;19.90;;;;;;;;;;5090128;28;20020;-60
2022/08/17 08:40:18;;;;;;;87.07;27.70;;;;;;;;;;5090391;28;20048;-60
2022/08/17 08:42:44;;;;;;;;;;;;;;;;;;5091285;28;20016;-60
2022/08/17 08:45:10;;;;;;;26.40;19.55;;;;;;;;;;5091147;28;19938;-62
2022/08/17 08:47:43;;;;;;;26.73;19.30;;;;;;;;;;5090764;28;20510;-63
2022/08/17 08:50:22;;;;;;;29.95;19.55;;;;;;;;;;5091128;28;20487;-63
2022/08/17 08:53:08;;;;;;;22.27;17.95;;;;;;;;;;5073095;28;20028;-63
2022/08/17 08:55:44;;;;;;;25.23;19.50;;;;;;;;;;5090829;28;20032;-63
2022/08/17 08:58:18;;;;;;;22.73;18.75;;;;;;;;;;5091316;28;20028;-63
2022/08/17 09:00:47;;;;;;;23.40;18.55;;;;;;;;;;5091318;28;20024;-60
2022/08/17 09:03:31;;;;;;;23.92;17.67;;;;;;;;;;5092836;28;20024;-62
2022/08/17 09:06:10;;;;;;;24.50;17.67;;;;;;;;;;5091996;28;20530;-63
2022/08/17 09:08:48;;;;;;;21.40;17.58;;;;;;;;;;5091400;28;20028;-62
2022/08/17 09:11:34;;;;;;;22.63;18.40;;;;;;;;;;5092598;28;20055;-61
2022/08/17 09:14:09;;;;;;;21.38;17.77;;;;;;;;;;5092682;28;20052;-59
2022/08/17 09:16:41;;;;;;;21.88;18.17;;;;;;;;;;5092702;28;20020;-62
2022/08/17 09:19:11;;;;;;;20.80;17.70;;;;;;;;;;5091530;28;20582;-62
2022/08/17 09:21:38;;;;;;;22.35;17.70;;;;;;;;;;5092361;28;20026;-62
2022/08/17 09:24:23;;;;;;;25.10;18.70;;;;;;;;;;5092030;28;20032;-59
2022/08/17 09:26:49;;;;;;;22.50;17.52;;;;;;;;;;5092152;28;20510;-63
2022/08/17 09:29:17;;;;;;;24.02;18.00;;;;;;;;;;5091277;28;20028;-62
2022/08/17 09:31:46;;;;;;;24.33;17.63;;;;;;;;;;5091705;28;20486;-62
2022/08/17 09:34:14;;;;;;;21.80;17.08;;;;;;;;;;5091253;28;20057;-62
2022/08/17 09:36:44;;;;;;;20.00;17.15;;;;;;;;;;5092026;28;20365;-62
2022/08/17 09:39:14;;;;;;;22.70;17.20;;;;;;;;;;5091216;28;20024;-62
2022/08/17 09:41:50;;;;;;;21.95;16.33;;;;;;;;;;5092063;28;20035;-63
2022/08/17 09:44:25;;;;;;;24.10;16.60;;;;;;;;;;5092186;28;20027;-62
2022/08/17 09:47:10;;;;;;;21.52;17.52;;;;;;;;;;5091993;28;20067;-62
2022/08/17 09:49:39;;;;;;;22.60;18.40;;;;;;;;;;5091816;28;20104;-63
2022/08/17 09:52:17;;;;;;;20.10;17.98;;;;;;;;;;5092277;28;20020;-59
2022/08/17 09:54:44;;;;;;;20.80;17.27;;;;;;;;;;5091890;28;20039;-62
2022/08/17 09:57:23;;;;;;;21.77;17.17;;;;;;;;;;5091560;28;20034;-61
2022/08/17 10:00:01;;;;;;;21.30;16.60;;;;;;;;;;5092162;28;20044;-60
2022/08/17 10:02:30;;;;;;;22.23;17.52;;;;;;;;;;5091711;28;20049;-63
2022/08/17 10:05:01;;;;;;;20.95;16.92;;;;;;;;;;5091877;28;20116;-58
2022/08/17 10:07:54;;;;;;;20.52;16.67;;;;;;;;;;5091130;28;20048;-62
2022/08/17 10:10:20;;;;;;;22.20;16.67;;;;;;;;;;5073131;28;20496;-61
2022/08/17 10:12:46;;;;;;;21.08;16.63;;;;;;;;;;5094831;28;20036;-59
2022/08/17 10:15:24;;;;;;;23.08;16.35;;;;;;;;;;5095601;28;20492;-61
2022/08/17 10:18:09;;;;;;;23.33;17.23;;;;;;;;;;5094594;28;20542;-61
2022/08/17 10:26:11;;;;;;;19.58;17.05;;;;;;;;;;5095680;28;20660;-55
2022/08/17 10:26:26;;;;;;;21.25;16.65;;;;;;;;;;5095689;28;20035;-60
2022/08/17 10:28:52;;;;;;;22.80;17.13;;;;;;;;;;5094556;28;20019;-61
2022/08/17 10:31:23;;;;;;;20.50;16.95;;;;;;;;;;5096205;28;20035;-61
2022/08/17 10:34:17;;;;;;;21.92;17.67;;;;;;;;;;5108618;28;20020;-60
2022/08/17 10:36:53;;;;;;;21.98;17.40;;;;;;;;;;5082332;28;20024;-61
2022/08/17 10:39:30;;;;;;;22.38;16.20;;;;;;;;;;5114911;28;20036;-62
2022/08/17 10:41:59;;;;;;;21.55;16.70;;;;;;;;;;5116086;28;20020;-61
2022/08/17 10:44:25;;;;;;;21.33;16.30;;;;;;;;;;5116955;28;20016;-61
2022/08/17 10:46:51;;;;;;;20.67;16.35;;;;;;;;;;5115766;28;20065;-59
2022/08/17 10:49:17;;;;;;;20.73;16.40;;;;;;;;;;5114677;28;20031;-58
2022/08/17 10:51:47;;;;;;;24.85;17.15;;;;;;;;;;5115667;28;20031;-60
2022/08/17 10:54:33;;;;;;;20.35;16.27;;;;;;;;;;5114582;28;20121;-62
2022/08/17 10:56:59;;;;;;;20.83;15.98;;;;;;;;;;5115496;28;20019;-60
2022/08/17 10:59:34;;;;;;;23.15;16.60;;;;;;;;;;5114542;28;20042;-60
2022/08/17 11:02:00;;;;;;;20.17;16.40;;;;;;;;;;5096605;28;20020;-61
2022/08/17 11:04:26;;;;;;;20.77;15.75;;;;;;;;;;5094447;28;20032;-61
2022/08/17 11:06:52;;;;;;;20.23;15.75;;;;;;;;;;5094828;28;20024;-62
2022/08/17 11:09:27;;;;;;;20.83;16.70;;;;;;;;;;5094179;28;20391;-60
2022/08/17 11:13:30;;;;;;;20.35;16.90;;;;;;;;;;5150987;27;20301;-61
2022/08/17 11:15:56;;;;;;;21.45;15.80;;;;;;;;;;5151394;27;20098;-61
2022/08/17 11:18:22;;;;;;;18.80;16.40;;;;;;;;;;5149463;27;20325;-61
2022/08/17 11:20:48;;;;;;;23.25;16.30;;;;;;;;;;5153880;27;20022;-59
2022/08/17 11:23:17;;;;;;;17.98;15.63;;;;;;;;;;5171773;27;20022;-63
2022/08/17 11:25:52;;;;;;;22.75;16.58;;;;;;;;;;5171554;27;20025;-63
2022/08/17 11:28:21;;;;;;;23.10;16.63;;;;;;;;;;5166169;27;21663;-61
2022/08/17 11:30:47;;;;;;;20.23;15.65;;;;;;;;;;5137508;27;20019;-63
2022/08/17 11:33:28;;;;;;;20.67;16.95;;;;;;;;;;5144619;27;20114;-64
2022/08/17 11:35:59;;;;;;;27.27;16.95;;;;;;;;;;5126660;27;20016;-62
2022/08/17 11:38:36;;;;;;;21.88;16.50;;;;;;;;;;5139838;27;20051;-64
2022/08/17 11:41:17;;;;;;;19.42;16.58;;;;;;;;;;5139410;27;20399;-63
2022/08/17 11:43:46;;;;;;;21.45;16.90;;;;;;;;;;5136001;27;20023;-63
2022/08/17 11:52:05;;;;;;;20.67;16.17;;;;;;;;;;5066987;28;20056;-55
2022/08/17 11:54:31;;;;;;;19.73;16.33;;;;;;;;;;5066987;28;20142;-55
2022/08/17 11:56:58;;;;;;;22.40;15.82;;;;;;;;;;5067299;28;20037;-57
2022/08/17 11:59:35;;;;;;;22.98;16.60;;;;;;;;;;5068270;28;20020;-58
2022/08/17 12:02:02;;;;;;;19.67;16.50;;;;;;;;;;5072193;28;20028;-57
2022/08/17 12:04:32;;;;;;;20.17;15.60;;;;;;;;;;5072016;28;20059;-57
2022/08/17 12:07:16;;;;;;;20.25;15.70;;;;;;;;;;5074225;28;20021;-55
2022/08/17 12:09:45;;;;;;;21.13;16.30;;;;;;;;;;5079399;28;20107;-56
2022/08/17 12:12:13;;;;;;;19.33;15.85;;;;;;;;;;5075611;28;20035;-57
2022/08/17 12:14:44;;;;;;;23.08;15.93;;;;;;;;;;5081446;28;20021;-58
2022/08/17 12:17:14;;;;;;;19.25;16.02;;;;;;;;;;5076035;28;20017;-56
2022/08/17 12:19:41;;;;;;;20.80;16.40;;;;;;;;;;5076423;28;20020;-58
2022/08/17 12:22:17;;;;;;;21.13;16.70;;;;;;;;;;4722815;28;10000551;-54
2022/08/17 12:24:50;;;;;;;19.83;16.85;;;;;;;;;;5060971;28;20035;-56
2022/08/17 12:27:21;;;;;;;20.92;16.95;;;;;;;;;;5060203;28;20068;-58
2022/08/17 12:29:47;;;;;;;22.73;16.85;;;;;;;;;;5059274;28;20074;-57
2022/08/17 12:32:16;;;;;;;21.13;17.10;;;;;;;;;;5060485;28;20370;-57
2022/08/17 12:34:43;;;;;;;19.67;16.52;;;;;;;;;;5061492;28;20088;-56
2022/08/17 12:37:19;;;;;;;20.02;16.17;;;;;;;;;;5060147;28;20035;-56
2022/08/17 12:39:53;;;;;;;27.98;16.40;;;;;;;;;;5064101;28;20337;-57
2022/08/17 12:42:24;;;;;;;20.75;16.30;;;;;;;;;;5067839;28;20028;-55
2022/08/17 12:44:50;;;;;;;20.55;16.63;;;;;;;;;;5055375;28;20719;-57
2022/08/17 12:47:18;;;;;;;19.65;15.95;;;;;;;;;;5059213;28;20056;-53
2022/08/17 12:49:47;;;;;;;21.13;16.38;;;;;;;;;;5058010;28;20082;-54
2022/08/17 12:52:19;;;;;;;20.05;16.10;;;;;;;;;;5058488;28;20037;-57
2022/08/17 12:54:45;;;;;;;22.02;16.95;;;;;;;;;;5050341;28;20052;-59
2022/08/17 12:57:16;;;;;;;22.55;17.33;;;;;;;;;;5064281;28;20111;-55
2022/08/17 12:59:44;;;;;;;23.05;16.48;;;;;;;;;;5065549;28;20024;-58
2022/08/17 13:02:10;;;;;;;;;;;;;;;;;;5056919;28;20064;-55
2022/08/17 13:04:39;;;;;;;19.45;16.48;;;;;;;;;;5050337;28;20320;-57
2022/08/17 13:07:05;;;;;;;19.95;15.60;;;;;;;;;;5049971;28;20082;-59
2022/08/17 13:09:31;;;;;;;21.23;16.60;;;;;;;;;;5053735;28;20551;-54
2022/08/17 13:12:01;;;;;;;21.27;15.93;;;;;;;;;;5058672;28;20033;-55
2022/08/17 13:14:28;;;;;;;19.27;15.50;;;;;;;;;;5058486;28;20052;-58
2022/08/17 13:16:58;;;;;;;21.08;16.80;;;;;;;;;;5054382;28;20028;-55
2022/08/17 13:19:25;;;;;;;18.52;15.50;;;;;;;;;;5051102;28;20074;-53
2022/08/17 13:21:53;;;;;;;18.77;15.52;;;;;;;;;;5063231;28;20032;-57
2022/08/17 13:24:27;;;;;;;20.48;15.73;;;;;;;;;;5055021;28;20465;-57
2022/08/17 13:26:54;;;;;;;17.60;13.88;;;;;;;;;;5060056;28;20511;-58
2022/08/17 13:29:25;;;;;;;17.13;13.60;;;;;;;;;;5058282;28;20303;-56
2022/08/17 13:31:53;;;;;;;18.45;14.50;;;;;;;;;;5061874;28;20028;-57
2022/08/17 13:34:31;;;;;;;17.65;14.68;;;;;;;;;;5065574;28;20044;-55
2022/08/17 13:37:15;;;;;;;16.85;14.35;;;;;;;;;;5064928;28;20067;-59
2022/08/17 13:39:42;;;;;;;18.65;14.80;;;;;;;;;;5056174;28;20021;-60
2022/08/17 13:42:27;;;;;;;16.13;13.50;;;;;;;;;;5052785;28;20029;-59
2022/08/17 13:44:53;;;;;;;17.58;13.77;;;;;;;;;;5052645;28;20028;-59
2022/08/17 13:47:20;;;;;;;18.30;14.45;;;;;;;;;;5051939;28;20032;-59
2022/08/17 13:49:47;;;;;;;17.23;14.77;;;;;;;;;;5052448;28;20033;-58
2022/08/17 13:52:31;;;;;;;16.83;14.27;;;;;;;;;;5051885;28;20307;-60
2022/08/17 13:54:59;;;;;;;17.92;15.60;;;;;;;;;;5052809;28;20092;-57
2022/08/17 13:57:25;;;;;;;20.88;14.18;;;;;;;;;;5052007;28;20106;-57
2022/08/17 13:59:53;;;;;;;18.25;15.63;;;;;;;;;;5052324;28;20100;-58
2022/08/17 14:02:20;;;;;;;20.00;17.05;;;;;;;;;;5052951;28;20075;-59
2022/08/17 14:04:46;;;;;;;17.75;14.32;;;;;;;;;;5070838;28;20028;-58
2022/08/17 14:07:14;;;;;;;17.08;14.35;;;;;;;;;;5070643;28;20439;-59
2022/08/17 14:09:47;;;;;;;18.92;14.98;;;;;;;;;;5071394;28;20055;-58
2022/08/17 14:12:15;;;;;;;17.02;14.50;;;;;;;;;;5070770;28;20465;-57
2022/08/17 14:14:41;;;;;;;18.65;14.95;;;;;;;;;;5072146;28;20041;-58
2022/08/17 14:17:08;;;;;;;20.02;16.48;;;;;;;;;;5071971;28;20048;-62
2022/08/17 14:19:34;;;;;;;17.90;14.98;;;;;;;;;;5070150;28;20048;-64
2022/08/17 14:22:01;;;;;;;19.02;15.27;;;;;;;;;;5072184;28;20025;-64
2022/08/17 14:24:27;;;;;;;17.02;14.70;;;;;;;;;;5071045;28;20393;-65
2022/08/17 14:26:53;;;;;;;19.05;15.05;;;;;;;;;;5071724;28;20550;-66
2022/08/17 14:29:20;;;;;;;18.95;16.55;;;;;;;;;;5071209;28;20116;-62
2022/08/17 14:31:46;;;;;;;21.25;16.23;;;;;;;;;;5071641;28;20491;-63
2022/08/17 14:34:12;;;;;;;17.60;15.65;;;;;;;;;;5070797;28;20021;-64
2022/08/17 14:36:40;;;;;;;19.40;15.57;;;;;;;;;;5070655;28;20016;-63
2022/08/17 14:39:07;;;;;;;19.08;16.70;;;;;;;;;;5071166;28;20021;-63
2022/08/17 14:41:34;;;;;;;18.40;16.40;;;;;;;;;;5072128;28;20020;-63
2022/08/17 14:44:00;;;;;;;19.67;17.07;;;;;;;;;;5071760;28;20021;-63
2022/08/17 14:46:26;;;;;;;18.40;16.40;;;;;;;;;;5071621;28;20067;-64
2022/08/17 14:48:52;;;;;;;18.30;15.48;;;;;;;;;;5071107;28;20480;-64
2022/08/17 14:51:19;;;;;;;19.13;15.75;;;;;;;;;;5071569;28;20451;-64
2022/08/17 14:53:45;;;;;;;18.13;15.80;;;;;;;;;;5071603;28;20025;-62
2022/08/17 14:56:12;;;;;;;19.63;16.35;;;;;;;;;;5060028;28;20025;-63
2022/08/17 14:58:41;;;;;;;19.63;16.60;;;;;;;;;;5050843;28;20024;-65